首页
METAR-TAF:

METAR-TAF

机场 :

Florence, 南卡罗来纳州, 美国

纬度: 34-11-16N, 经度: 079-43-51W, 海拔: 45米

当前天气观测

该预报发布于38分钟前的02:53 UTC
风速8节,风向
温度 19°C
湿度 46%
气压 1016 hPa
能見度: 16.1公里
天空无云

METAR: KFLO 170253Z AUTO 36008KT 10SM CLR 19/07 A2999 RMK AO2 SLP151 T01890072 53036

时间: 23:31 (03:31 UTC)

预报

该预报发布于4小时和11分钟前的23:20 UTC
预报有效从17日的 00点(UTC)到 17日的 24点(UTC)
风速14节,风向
能見度: 10公里
多云层高于6000英尺
从 17日的 0300点(UTC)
风速9节,风向
能見度: 10公里
天空无云
从 17日的 1300点(UTC)
风速11节,风向
能見度: 10公里
天空无云

TAF: KFLO 162320Z 1700/1724 35014KT P6SM BKN060 FM170300 35009KT P6SM SKC FM171300 35011KT P6SM SKC

超过4000个机场的气象观测和天气预报(METAR&TAF报告)。

可查询的气象台以黄色和红色小点在地图上表示。

将鼠标移到小点上方,可查看气象台名称。

然后点击查看天气观测和预报。

如需切换地图:点击带黑十字的绿色按钮放大地图;点击带横线的绿色按钮缩小地图;或者点击绿色箭头查看邻近地区的地图。


METAR-TAF: